createdAt,value
2019-01-11T00:02:23.427Z,-2.10
2019-01-11T00:04:53.216Z,-2.00
2019-01-11T00:07:23.124Z,-2.00
2019-01-11T00:09:52.884Z,-2.00
2019-01-11T00:12:22.684Z,-1.90
2019-01-11T00:14:52.464Z,-1.80
2019-01-11T00:17:22.339Z,-1.80
2019-01-11T00:19:52.082Z,-1.80
2019-01-11T00:22:21.956Z,-1.70
2019-01-11T00:24:51.677Z,-1.70
2019-01-11T00:27:21.482Z,-1.60
2019-01-11T00:29:51.269Z,-1.60
2019-01-11T00:32:21.685Z,-1.60
2019-01-11T00:34:54.567Z,-1.60
2019-01-11T00:37:24.451Z,-1.70
2019-01-11T00:39:54.322Z,-1.80
2019-01-11T00:42:24.049Z,-1.90
2019-01-11T00:44:56.725Z,-2.00
2019-01-11T00:47:28.119Z,-2.00
2019-01-11T00:49:57.904Z,-2.10
2019-01-11T00:52:27.722Z,-2.20
2019-01-11T00:54:57.589Z,-2.20
2019-01-11T00:57:27.386Z,-2.20
2019-01-11T00:59:57.245Z,-2.20
2019-01-11T01:02:27.100Z,-2.20
2019-01-11T01:04:56.902Z,-2.20
2019-01-11T01:07:26.775Z,-2.10
2019-01-11T01:09:56.725Z,-2.10
2019-01-11T01:12:26.518Z,-2.00
2019-01-11T01:14:56.313Z,-2.00
2019-01-11T01:17:26.189Z,-1.90
2019-01-11T01:19:55.971Z,-1.90
2019-01-11T01:22:25.792Z,-1.90
2019-01-11T01:24:55.578Z,-1.80
2019-01-11T01:27:25.417Z,-1.80
2019-01-11T01:29:55.220Z,-1.80
2019-01-11T01:32:25.271Z,-1.80
2019-01-11T01:34:55.080Z,-1.80
2019-01-11T01:37:24.957Z,-1.90
2019-01-11T01:39:54.694Z,-1.90
2019-01-11T01:42:24.586Z,-2.00
2019-01-11T01:44:54.381Z,-2.00
2019-01-11T01:47:24.233Z,-2.10
2019-01-11T01:49:54.104Z,-2.10
2019-01-11T01:52:24.343Z,-2.10
2019-01-11T01:54:54.267Z,-2.20
2019-01-11T01:57:24.057Z,-2.10
2019-01-11T01:59:53.929Z,-2.10
2019-01-11T02:02:23.725Z,-2.00
2019-01-11T02:04:53.525Z,-2.10
2019-01-11T02:07:23.314Z,-2.10
2019-01-11T02:09:53.381Z,-2.10
2019-01-11T02:12:23.161Z,-2.00
2019-01-11T02:14:52.888Z,-1.90
2019-01-11T02:17:22.610Z,-1.90
2019-01-11T02:19:52.512Z,-1.90
2019-01-11T02:22:22.394Z,-1.90
2019-01-11T02:24:52.297Z,-1.90
2019-01-11T02:27:22.106Z,-1.90
2019-01-11T02:29:51.946Z,-2.00
2019-01-11T02:32:21.762Z,-2.00
2019-01-11T02:34:51.493Z,-2.10
2019-01-11T02:37:21.349Z,-2.10
2019-01-11T02:39:51.231Z,-2.10
2019-01-11T02:42:20.996Z,-2.10
2019-01-11T02:44:50.913Z,-2.10
2019-01-11T02:47:20.804Z,-2.10
2019-01-11T02:49:50.641Z,-2.10
2019-01-11T02:52:20.571Z,-2.00
2019-01-11T02:54:50.408Z,-2.00
2019-01-11T02:57:20.230Z,-2.00
2019-01-11T02:59:50.140Z,-2.00
2019-01-11T03:02:20.046Z,-2.00
2019-01-11T03:04:49.945Z,-2.00
2019-01-11T03:07:19.853Z,-2.00
2019-01-11T03:09:49.754Z,-1.90
2019-01-11T03:12:19.710Z,-2.00
2019-01-11T03:14:49.591Z,-2.00
2019-01-11T03:17:19.470Z,-2.00
2019-01-11T03:19:49.275Z,-2.10
2019-01-11T03:22:19.164Z,-2.10
2019-01-11T03:24:49.056Z,-2.10
2019-01-11T03:27:18.800Z,-2.10
2019-01-11T03:29:48.618Z,-2.10
2019-01-11T03:32:18.519Z,-2.10
2019-01-11T03:35:08.466Z,-2.10
2019-01-11T03:37:38.349Z,-2.10
2019-01-11T03:40:09.686Z,-2.20
2019-01-11T03:42:39.493Z,-2.10
2019-01-11T03:45:10.949Z,-2.20
2019-01-11T03:47:40.748Z,-2.20
2019-01-11T03:50:14.737Z,-2.20
2019-01-11T03:52:47.324Z,-2.20
2019-01-11T03:55:18.101Z,-2.20
2019-01-11T03:57:47.974Z,-2.20
2019-01-11T04:00:23.111Z,-2.30
2019-01-11T04:02:52.986Z,-2.20
2019-01-11T04:05:22.895Z,-2.20
2019-01-11T04:07:52.838Z,-2.20
2019-01-11T04:10:23.925Z,-2.20
2019-01-11T04:12:53.825Z,-2.20
2019-01-11T04:15:24.263Z,-2.20
2019-01-11T04:18:15.229Z,-2.20
2019-01-11T04:20:45.055Z,-2.20
2019-01-11T04:23:14.976Z,-2.20
2019-01-11T04:25:46.476Z,-2.20
2019-01-11T04:28:16.362Z,-2.10
2019-01-11T04:30:46.279Z,-2.10
2019-01-11T04:33:16.294Z,-2.10
2019-01-11T04:35:46.222Z,-2.10
2019-01-11T04:38:16.238Z,-2.10
2019-01-11T04:40:46.082Z,-2.10
2019-01-11T04:43:15.879Z,-2.00
2019-01-11T04:45:45.686Z,-2.00
2019-01-11T04:48:15.491Z,-2.00
2019-01-11T04:50:45.345Z,-2.00
2019-01-11T04:53:15.361Z,-2.00
2019-01-11T04:55:45.363Z,-2.00
2019-01-11T04:58:15.199Z,-2.10
2019-01-11T05:00:45.115Z,-2.00
2019-01-11T05:03:15.010Z,-2.10
2019-01-11T05:05:44.914Z,-2.10
2019-01-11T05:08:14.718Z,-2.20
2019-01-11T05:10:44.462Z,-2.20
2019-01-11T05:13:28.452Z,-2.30
2019-01-11T05:15:58.265Z,-2.30
2019-01-11T05:18:28.073Z,-2.40
2019-01-11T05:20:57.935Z,-2.40
2019-01-11T05:23:27.845Z,-2.50
2019-01-11T05:25:57.746Z,-2.50
2019-01-11T05:28:27.625Z,-2.50
2019-01-11T05:30:58.889Z,-2.60
2019-01-11T05:33:29.742Z,-2.60
2019-01-11T05:35:59.677Z,-2.60
2019-01-11T05:38:29.570Z,-2.70
2019-01-11T05:40:59.427Z,-2.70
2019-01-11T05:43:29.170Z,-2.70
2019-01-11T05:45:58.996Z,-2.80
2019-01-11T05:48:28.795Z,-2.80
2019-01-11T05:50:58.611Z,-2.80
2019-01-11T05:53:28.427Z,-2.80
2019-01-11T05:55:59.549Z,-2.80
2019-01-11T05:58:35.678Z,-2.80
2019-01-11T06:01:05.676Z,-2.70
2019-01-11T06:03:35.560Z,-2.80
2019-01-11T06:06:06.020Z,-2.70
2019-01-11T06:08:36.242Z,-2.80
2019-01-11T06:11:06.229Z,-2.70
2019-01-11T06:13:36.106Z,-2.70
2019-01-11T06:16:06.530Z,-2.70
2019-01-11T06:18:36.441Z,-2.70
2019-01-11T06:21:06.330Z,-2.70
2019-01-11T06:23:36.150Z,-2.60
2019-01-11T06:26:06.020Z,-2.60
2019-01-11T06:28:35.896Z,-2.60
2019-01-11T06:31:05.813Z,-2.60
2019-01-11T06:33:35.641Z,-2.50
2019-01-11T06:36:05.572Z,-2.50
2019-01-11T06:38:35.418Z,-2.60
2019-01-11T06:41:05.832Z,-2.60
2019-01-11T06:43:35.673Z,-2.50
2019-01-11T06:46:05.572Z,-2.50
2019-01-11T06:48:40.611Z,-2.50
2019-01-11T06:51:11.810Z,-2.50
2019-01-11T06:53:41.777Z,-2.50
2019-01-11T06:56:11.734Z,-2.50
2019-01-11T06:58:41.638Z,-2.50
2019-01-11T07:01:11.541Z,-2.50
2019-01-11T07:03:41.517Z,-2.40
2019-01-11T07:06:12.018Z,-2.40
2019-01-11T07:08:41.981Z,-2.40
2019-01-11T07:11:11.882Z,-2.30
2019-01-11T07:13:41.779Z,-2.30
2019-01-11T07:16:11.679Z,-2.30
2019-01-11T07:18:41.489Z,-2.20
2019-01-11T07:21:11.382Z,-2.10
2019-01-11T07:23:41.209Z,-2.00
2019-01-11T07:26:11.029Z,-2.00
2019-01-11T07:28:40.833Z,-1.90
2019-01-11T07:31:12.803Z,-1.90
2019-01-11T07:33:42.611Z,-1.90
2019-01-11T07:36:28.961Z,-1.90
2019-01-11T07:38:58.905Z,-1.90
2019-01-11T07:41:28.787Z,-2.00
2019-01-11T07:43:58.614Z,-2.00
2019-01-11T07:46:28.413Z,-2.00
2019-01-11T07:48:58.182Z,-2.00
2019-01-11T07:51:28.001Z,-1.90
2019-01-11T07:53:57.913Z,-1.90
2019-01-11T07:56:27.802Z,-1.90
2019-01-11T07:58:57.614Z,-1.80
2019-01-11T08:01:29.132Z,-1.80
2019-01-11T08:03:58.965Z,-1.70
2019-01-11T08:06:28.917Z,-1.70
2019-01-11T08:08:58.791Z,-1.60
2019-01-11T08:11:28.671Z,-1.60
2019-01-11T08:13:59.630Z,-1.50
2019-01-11T08:16:29.438Z,-1.50
2019-01-11T08:18:59.409Z,-1.40
2019-01-11T08:21:29.229Z,-1.40
2019-01-11T08:23:59.122Z,-1.30
2019-01-11T08:26:29.050Z,-1.30
2019-01-11T08:28:58.894Z,-1.20
2019-01-11T08:31:34.576Z,-1.10
2019-01-11T08:34:00.298Z,-1.10
2019-01-11T08:36:30.180Z,-1.00
2019-01-11T08:38:59.985Z,-1.10
2019-01-11T08:41:29.874Z,-1.10
2019-01-11T08:43:59.763Z,-1.00
2019-01-11T08:46:30.523Z,-1.00
2019-01-11T08:49:00.465Z,-1.00
2019-01-11T08:51:30.339Z,-1.10
2019-01-11T08:54:01.309Z,-1.10
2019-01-11T08:56:31.114Z,-1.00
2019-01-11T08:59:01.834Z,-1.00
2019-01-11T09:01:31.709Z,-1.00
2019-01-11T09:04:01.464Z,-1.00
2019-01-11T09:06:31.356Z,-0.90
2019-01-11T09:09:01.229Z,-0.80
2019-01-11T09:11:32.517Z,-0.90
2019-01-11T09:14:03.202Z,-0.70
2019-01-11T09:16:33.020Z,-0.70
2019-01-11T09:19:04.636Z,-0.70
2019-01-11T09:21:34.521Z,-0.70
2019-01-11T09:24:04.416Z,-0.60
2019-01-11T09:26:34.156Z,-0.70
2019-01-11T09:29:04.029Z,-0.60
2019-01-11T09:31:33.848Z,-0.50
2019-01-11T09:34:03.742Z,-0.50
2019-01-11T09:36:33.517Z,-0.40
2019-01-11T09:39:04.630Z,-0.30
2019-01-11T09:41:34.528Z,-0.30
2019-01-11T09:44:04.433Z,-0.30
2019-01-11T09:46:34.334Z,-0.20
2019-01-11T09:49:04.136Z,-0.20
2019-01-11T09:51:34.050Z,-0.20
2019-01-11T09:54:03.925Z,-0.20
2019-01-11T09:56:33.743Z,-0.20
2019-01-11T09:59:03.609Z,-0.20
2019-01-11T10:01:33.449Z,-0.20
2019-01-11T10:04:03.337Z,-0.10
2019-01-11T10:06:35.575Z,-0.10
2019-01-11T10:09:06.808Z,0.00
2019-01-11T10:11:36.646Z,0.10
2019-01-11T10:14:06.545Z,0.10
2019-01-11T10:16:36.514Z,0.20
2019-01-11T10:19:06.309Z,0.20
2019-01-11T10:21:47.062Z,0.20
2019-01-11T10:24:19.726Z,0.30
2019-01-11T10:27:14.194Z,0.30
2019-01-11T10:29:44.041Z,0.20
2019-01-11T10:32:14.037Z,0.10
2019-01-11T10:34:44.768Z,0.10
2019-01-11T10:37:14.505Z,-0.10
2019-01-11T10:39:44.401Z,0.00
2019-01-11T10:42:14.896Z,0.00
2019-01-11T10:44:44.714Z,0.00
2019-01-11T10:47:14.463Z,0.00
2019-01-11T10:49:44.303Z,0.00
2019-01-11T10:52:14.169Z,0.00
2019-01-11T10:54:44.424Z,0.10
2019-01-11T10:57:20.405Z,0.20
2019-01-11T10:59:50.231Z,0.20
2019-01-11T11:02:20.209Z,0.30
2019-01-11T11:04:50.034Z,0.40
2019-01-11T11:07:19.932Z,0.40
2019-01-11T11:09:49.772Z,0.30
2019-01-11T11:12:19.773Z,0.30
2019-01-11T11:14:49.649Z,0.30
2019-01-11T11:17:19.484Z,0.30
2019-01-11T11:19:49.365Z,0.30
2019-01-11T11:22:19.303Z,0.30
2019-01-11T11:24:49.168Z,0.30
2019-01-11T11:27:18.906Z,0.20
2019-01-11T11:29:48.730Z,0.10
2019-01-11T11:32:23.108Z,0.00
2019-01-11T11:34:52.928Z,-0.10
2019-01-11T11:37:24.483Z,-0.10
2019-01-11T11:39:54.502Z,-0.10
2019-01-11T11:42:24.727Z,-0.10
2019-01-11T11:44:54.441Z,0.00
2019-01-11T11:47:24.369Z,0.00
2019-01-11T11:49:54.185Z,0.00
2019-01-11T11:52:24.094Z,0.00
2019-01-11T11:54:54.208Z,0.00
2019-01-11T11:57:24.140Z,0.00
2019-01-11T11:59:53.955Z,0.10
2019-01-11T12:02:23.778Z,0.00
2019-01-11T12:04:53.524Z,0.00
2019-01-11T12:07:23.649Z,0.00
2019-01-11T12:09:53.465Z,0.00
2019-01-11T12:12:23.297Z,-0.10
2019-01-11T12:14:53.169Z,0.00
2019-01-11T12:17:23.022Z,0.00
2019-01-11T12:19:56.999Z,0.00
2019-01-11T12:22:24.481Z,0.00
2019-01-11T12:24:54.293Z,0.00
2019-01-11T12:27:24.111Z,0.00
2019-01-11T12:29:53.908Z,0.10
2019-01-11T12:32:23.753Z,0.00
2019-01-11T12:34:53.484Z,0.10
2019-01-11T12:37:23.229Z,0.10
2019-01-11T12:39:53.127Z,0.10
2019-01-11T12:42:22.936Z,0.00
2019-01-11T12:44:52.831Z,0.00
2019-01-11T12:47:22.577Z,0.10
2019-01-11T12:49:52.453Z,0.00
2019-01-11T12:52:22.356Z,0.00
2019-01-11T12:54:52.179Z,0.00
2019-01-11T12:57:21.979Z,-0.10
2019-01-11T12:59:51.868Z,-0.10
2019-01-11T13:02:22.662Z,-0.20
2019-01-11T13:04:52.565Z,-0.20
2019-01-11T13:07:22.370Z,-0.10
2019-01-11T13:09:52.265Z,-0.20
2019-01-11T13:12:22.140Z,-0.30
2019-01-11T13:14:52.039Z,-0.20
2019-01-11T13:17:21.916Z,-0.30
2019-01-11T13:19:51.669Z,-0.20
2019-01-11T13:22:21.559Z,-0.30
2019-01-11T13:24:51.450Z,-0.30
2019-01-11T13:27:21.254Z,-0.30
2019-01-11T13:29:50.992Z,-0.30
2019-01-11T13:32:20.817Z,-0.20
2019-01-11T13:34:50.701Z,-0.20
2019-01-11T13:37:20.605Z,-0.20
2019-01-11T13:39:50.449Z,-0.20
2019-01-11T13:42:20.312Z,-0.20
2019-01-11T13:44:50.113Z,-0.20
2019-01-11T13:47:19.981Z,-0.20
2019-01-11T13:49:50.973Z,-0.20
2019-01-11T13:52:20.802Z,-0.30
2019-01-11T13:54:50.624Z,-0.20
2019-01-11T13:57:20.439Z,0.00
2019-01-11T13:59:50.261Z,-0.10
2019-01-11T14:02:20.139Z,-0.10
2019-01-11T14:04:49.949Z,-0.10
2019-01-11T14:07:19.981Z,-0.20
2019-01-11T14:09:49.810Z,-0.30
2019-01-11T14:12:19.598Z,-0.30
2019-01-11T14:14:49.428Z,-0.30
2019-01-11T14:17:19.225Z,-0.40
2019-01-11T14:19:49.038Z,-0.40
2019-01-11T14:22:18.966Z,-0.40
2019-01-11T14:24:48.832Z,-0.30
2019-01-11T14:27:18.634Z,-0.20
2019-01-11T14:29:48.560Z,-0.20
2019-01-11T14:32:18.357Z,-0.20
2019-01-11T14:34:48.270Z,-0.20
2019-01-11T14:37:18.063Z,-0.20
2019-01-11T14:39:47.792Z,-0.20
2019-01-11T14:42:17.594Z,-0.20
2019-01-11T14:44:47.317Z,-0.30
2019-01-11T14:47:17.089Z,-0.30
2019-01-11T14:49:46.902Z,-0.30
2019-01-11T14:52:20.307Z,-0.30
2019-01-11T14:54:48.265Z,-0.30
2019-01-11T14:57:18.163Z,-0.40
2019-01-11T14:59:47.920Z,-0.30
2019-01-11T15:02:17.729Z,-0.40
2019-01-11T15:04:47.544Z,-0.30
2019-01-11T15:07:17.349Z,-0.40
2019-01-11T15:09:47.078Z,-0.40
2019-01-11T15:12:16.817Z,-0.40
2019-01-11T15:14:46.687Z,-0.50
2019-01-11T15:17:16.587Z,-0.50
2019-01-11T15:19:46.451Z,-0.50
2019-01-11T15:22:16.190Z,-0.40
2019-01-11T15:24:45.981Z,-0.50
2019-01-11T15:27:15.817Z,-0.50
2019-01-11T15:29:45.542Z,-0.50
2019-01-11T15:32:15.432Z,-0.50
2019-01-11T15:34:45.173Z,-0.60
2019-01-11T15:37:15.054Z,-0.50
2019-01-11T15:39:45.929Z,-0.50
2019-01-11T15:42:15.805Z,-0.50
2019-01-11T15:44:45.598Z,-0.50
2019-01-11T15:47:15.392Z,-0.60
2019-01-11T15:49:45.119Z,-0.60
2019-01-11T15:52:14.868Z,-0.60
2019-01-11T15:54:44.727Z,-0.60
2019-01-11T15:57:14.654Z,-0.70
2019-01-11T16:00:01.442Z,-0.70
2019-01-11T16:02:31.249Z,-0.70
2019-01-11T16:05:01.201Z,-0.70
2019-01-11T16:07:31.116Z,-0.70
2019-01-11T16:10:05.972Z,-0.70
2019-01-11T16:13:05.353Z,-0.80
2019-01-11T16:16:08.434Z,-0.80
2019-01-11T16:18:38.285Z,-0.70
2019-01-11T16:21:08.178Z,-0.80
2019-01-11T16:23:38.198Z,-0.80
2019-01-11T16:26:08.146Z,-0.80
2019-01-11T16:28:37.972Z,-0.80
2019-01-11T16:31:07.782Z,-0.80
2019-01-11T16:33:37.601Z,-0.80
2019-01-11T16:36:07.489Z,-0.80
2019-01-11T16:38:38.271Z,-0.80
2019-01-11T16:41:08.230Z,-0.80
2019-01-11T16:43:38.057Z,-0.80
2019-01-11T16:46:07.869Z,-0.80
2019-01-11T16:48:37.630Z,-0.80
2019-01-11T16:51:07.444Z,-0.80
2019-01-11T16:53:37.259Z,-0.80
2019-01-11T16:56:10.192Z,-0.80
2019-01-11T16:58:40.885Z,-0.80
2019-01-11T17:01:10.766Z,-0.80
2019-01-11T17:03:40.605Z,-0.80
2019-01-11T17:06:10.495Z,-0.70
2019-01-11T17:08:40.320Z,-0.70
2019-01-11T17:11:10.137Z,-0.70
2019-01-11T17:13:40.737Z,-0.70
2019-01-11T17:16:10.790Z,-0.70
2019-01-11T17:18:40.525Z,-0.70
2019-01-11T17:21:10.396Z,-0.70
2019-01-11T17:23:40.289Z,-0.70
2019-01-11T17:26:10.202Z,-0.80
2019-01-11T17:28:40.029Z,-0.70
2019-01-11T17:31:09.934Z,-0.70
2019-01-11T17:33:39.717Z,-0.70
2019-01-11T17:36:09.515Z,-0.60
2019-01-11T17:38:39.356Z,-0.60
2019-01-11T17:41:09.221Z,-0.60
2019-01-11T17:43:39.090Z,-0.60
2019-01-11T17:46:08.971Z,-0.60
2019-01-11T17:48:39.168Z,-0.60
2019-01-11T17:51:09.161Z,-0.50
2019-01-11T17:53:38.976Z,-0.50
2019-01-11T17:56:08.815Z,-0.50
2019-01-11T17:58:38.561Z,-0.50
2019-01-11T18:01:08.456Z,-0.50
2019-01-11T18:03:38.231Z,-0.50
2019-01-11T18:06:08.026Z,-0.50
2019-01-11T18:08:37.946Z,-0.50
2019-01-11T18:11:07.749Z,-0.50
2019-01-11T18:13:37.536Z,-0.50
2019-01-11T18:16:07.456Z,-0.40
2019-01-11T18:18:37.230Z,-0.50
2019-01-11T18:21:07.101Z,-0.50
2019-01-11T18:23:37.978Z,-0.40
2019-01-11T18:26:07.852Z,-0.40
2019-01-11T18:28:37.657Z,-0.40
2019-01-11T18:31:26.678Z,-0.40
2019-01-11T18:33:56.585Z,-0.30
2019-01-11T18:36:26.518Z,-0.30
2019-01-11T18:38:56.382Z,-0.40
2019-01-11T18:41:26.185Z,-0.40
2019-01-11T18:43:56.028Z,-0.40
2019-01-11T18:46:25.952Z,-0.30
2019-01-11T18:48:55.773Z,-0.40
2019-01-11T18:51:25.658Z,-0.40
2019-01-11T18:53:55.405Z,-0.40
2019-01-11T18:56:25.335Z,-0.30
2019-01-11T18:58:55.147Z,-0.40
2019-01-11T19:01:25.014Z,-0.40
2019-01-11T19:03:54.956Z,-0.30
2019-01-11T19:06:24.880Z,-0.40
2019-01-11T19:08:54.848Z,-0.30
2019-01-11T19:11:24.775Z,-0.40
2019-01-11T19:13:54.680Z,-0.30
2019-01-11T19:16:24.595Z,-0.40
2019-01-11T19:18:55.459Z,-0.40
2019-01-11T19:21:25.385Z,-0.40
2019-01-11T19:23:55.282Z,-0.40
2019-01-11T19:26:25.207Z,-0.40
2019-01-11T19:28:55.031Z,-0.30
2019-01-11T19:31:26.055Z,-0.30
2019-01-11T19:33:56.206Z,-0.30
2019-01-11T19:36:26.085Z,-0.30
2019-01-11T19:38:55.969Z,-0.20
2019-01-11T19:41:25.802Z,-0.30
2019-01-11T19:43:55.636Z,-0.20
2019-01-11T19:46:25.476Z,-0.20
2019-01-11T19:48:55.345Z,-0.20
2019-01-11T19:51:25.163Z,-0.20
2019-01-11T19:53:55.101Z,-0.20
2019-01-11T19:56:24.918Z,-0.10
2019-01-11T19:58:54.655Z,-0.10
2019-01-11T20:01:24.570Z,-0.10
2019-01-11T20:03:54.470Z,0.00
2019-01-11T20:06:24.461Z,0.00
2019-01-11T20:08:54.361Z,0.10
2019-01-11T20:11:24.251Z,0.10
2019-01-11T20:13:57.056Z,0.10
2019-01-11T20:16:26.951Z,0.10
2019-01-11T20:18:56.831Z,0.10
2019-01-11T20:21:26.716Z,0.10
2019-01-11T20:23:56.618Z,0.10
2019-01-11T20:26:27.362Z,0.10
2019-01-11T20:28:57.242Z,0.10
2019-01-11T20:31:27.195Z,0.10
2019-01-11T20:33:57.145Z,0.20
2019-01-11T20:36:28.237Z,0.20
2019-01-11T20:38:58.138Z,0.20
2019-01-11T20:41:27.865Z,0.20
2019-01-11T20:43:57.686Z,0.20
2019-01-11T20:46:27.514Z,0.20
2019-01-11T20:48:57.317Z,0.20
2019-01-11T20:51:27.204Z,0.20
2019-01-11T20:53:57.101Z,0.10
2019-01-11T20:56:27.211Z,0.20
2019-01-11T20:58:57.110Z,0.20
2019-01-11T21:01:26.993Z,0.20
2019-01-11T21:03:56.867Z,0.20
2019-01-11T21:06:26.636Z,0.20
2019-01-11T21:08:56.576Z,0.30
2019-01-11T21:11:26.458Z,0.30
2019-01-11T21:13:56.339Z,0.40
2019-01-11T21:16:26.235Z,0.50
2019-01-11T21:18:56.127Z,0.50
2019-01-11T21:21:25.988Z,0.50
2019-01-11T21:23:55.982Z,0.50
2019-01-11T21:26:26.001Z,0.50
2019-01-11T21:28:55.809Z,0.50
2019-01-11T21:31:25.694Z,0.50
2019-01-11T21:33:55.513Z,0.50
2019-01-11T21:36:25.420Z,0.50
2019-01-11T21:38:55.244Z,0.50
2019-01-11T21:41:25.120Z,0.50
2019-01-11T21:43:54.865Z,0.50
2019-01-11T21:46:24.746Z,0.50
2019-01-11T21:48:55.835Z,0.50
2019-01-11T21:51:25.705Z,0.50
2019-01-11T21:53:55.981Z,0.60
2019-01-11T21:56:25.901Z,0.60
2019-01-11T21:58:55.729Z,0.60
2019-01-11T22:01:25.646Z,0.60
2019-01-11T22:03:55.511Z,0.60
2019-01-11T22:06:25.398Z,0.60
2019-01-11T22:08:55.323Z,0.60
2019-01-11T22:11:25.215Z,0.50
2019-01-11T22:13:54.971Z,0.50
2019-01-11T22:16:24.868Z,0.50
2019-01-11T22:18:54.695Z,0.50
2019-01-11T22:21:24.582Z,0.50
2019-01-11T22:23:54.337Z,0.40
2019-01-11T22:26:24.235Z,0.50
2019-01-11T22:28:54.118Z,0.50
2019-01-11T22:31:23.915Z,0.50
2019-01-11T22:33:53.653Z,0.50
2019-01-11T22:36:23.457Z,0.50
2019-01-11T22:38:53.200Z,0.40
2019-01-11T22:41:23.017Z,0.50
2019-01-11T22:43:52.772Z,0.50
2019-01-11T22:46:22.582Z,0.40
2019-01-11T22:48:52.468Z,0.40
2019-01-11T22:51:22.365Z,0.40
2019-01-11T22:53:52.193Z,0.40
2019-01-11T22:56:21.908Z,0.50
2019-01-11T22:58:51.733Z,0.50
2019-01-11T23:01:47.846Z,0.50
2019-01-11T23:04:17.736Z,0.50
2019-01-11T23:06:59.613Z,0.50
2019-01-11T23:09:35.862Z,0.50
2019-01-11T23:12:28.315Z,0.50
2019-01-11T23:14:58.210Z,0.50
2019-01-11T23:17:40.032Z,0.50
2019-01-11T23:20:12.353Z,0.60
2019-01-11T23:22:43.229Z,0.60
2019-01-11T23:25:14.786Z,0.70
2019-01-11T23:27:47.382Z,0.70
2019-01-11T23:30:18.265Z,0.70
2019-01-11T23:32:48.112Z,0.70
2019-01-11T23:35:17.981Z,0.80
2019-01-11T23:37:47.791Z,0.80
2019-01-11T23:40:18.014Z,0.80
2019-01-11T23:42:47.805Z,0.80
2019-01-11T23:45:17.683Z,0.80
2019-01-11T23:47:47.473Z,0.80
2019-01-11T23:50:17.925Z,0.80
2019-01-11T23:52:47.769Z,0.80
2019-01-11T23:55:17.545Z,0.90
2019-01-11T23:57:47.286Z,0.90
